Time;durP1;ratioP1;P1;durP2;ratioP2;P2;SDS_P1;SDS_P2;PMS_P1;PMS_P2;Temp;Humidity;BMP_temperature;BMP_pressure;BME280_temperature;BME280_humidity;BME280_pressure;Samples;Min_cycle;Max_cycle;Signal;HPM_P1;HPM_P2
2022/03/09 00:00:07;;;;;;;73.80;30.65;;;;;;;8.26;100.00;100319.72;5050184;28;20801;-88
2022/03/09 00:02:34;;;;;;;72.55;31.33;;;;;;;8.25;100.00;100322.38;5050322;28;20056;-89
2022/03/09 00:05:01;;;;;;;66.07;30.23;;;;;;;8.12;100.00;100320.19;5052070;28;20045;-89
2022/03/09 00:07:28;;;;;;;78.72;32.20;;;;;;;8.23;100.00;100325.03;5051674;28;20045;-89
2022/03/09 00:09:55;;;;;;;79.78;30.83;;;;;;;8.37;100.00;100308.91;5052247;28;20047;-89
2022/03/09 00:12:25;;;;;;;70.03;31.83;;;;;;;8.17;100.00;100320.06;5050556;28;20044;-89
2022/03/09 00:14:51;;;;;;;76.65;35.17;;;;;;;7.87;100.00;100311.50;5052131;28;20048;-89
2022/03/09 00:17:18;;;;;;;72.82;33.20;;;;;;;7.95;100.00;100299.06;5051323;28;20060;-89
2022/03/09 00:19:45;;;;;;;69.68;31.25;;;;;;;8.27;100.00;100286.66;5044396;28;20049;-89
2022/03/09 00:22:12;;;;;;;82.75;34.25;;;;;;;8.08;100.00;100307.34;5050401;28;20063;-89
2022/03/09 00:24:39;;;;;;;88.25;34.03;;;;;;;7.80;100.00;100292.59;5051725;28;20562;-89
2022/03/09 00:27:06;;;;;;;80.53;33.28;;;;;;;8.19;100.00;100284.34;5051439;28;20051;-88
2022/03/09 00:29:33;;;;;;;77.00;32.38;;;;;;;8.30;100.00;100284.78;5051215;28;20477;-88
2022/03/09 00:32:00;;;;;;;76.30;34.85;;;;;;;7.82;100.00;100289.97;5050910;28;20073;-89
2022/03/09 00:34:27;;;;;;;68.03;29.92;;;;;;;8.15;100.00;100272.31;5051654;28;20052;-89
2022/03/09 00:36:54;;;;;;;80.43;32.30;;;;;;;7.94;100.00;100253.03;5053087;28;20049;-89
2022/03/09 00:39:21;;;;;;;79.25;33.47;;;;;;;7.58;100.00;100246.41;5044780;28;20462;-90
2022/03/09 00:41:48;;;;;;;87.97;34.25;;;;;;;7.84;100.00;100265.53;5044684;28;20104;-89
2022/03/09 00:44:16;;;;;;;82.50;34.55;;;;;;;7.82;100.00;100301.22;5050453;28;20053;-88
2022/03/09 00:46:42;;;;;;;81.75;34.22;;;;;;;7.95;100.00;100268.63;5032109;28;20099;-89
2022/03/09 00:49:09;;;;;;;79.25;33.75;;;;;;;7.88;100.00;100254.13;5031236;28;20057;-89
2022/03/09 00:51:36;;;;;;;89.15;33.03;;;;;;;7.64;100.00;100297.47;5043172;28;20059;-89
2022/03/09 00:54:03;;;;;;;66.57;29.88;;;;;;;8.05;100.00;100265.72;5050632;28;20049;-88
2022/03/09 00:56:30;;;;;;;80.70;33.85;;;;;;;8.21;100.00;100287.72;5051527;28;20148;-89
2022/03/09 00:58:57;;;;;;;80.70;31.55;;;;;;;7.99;100.00;100272.84;5038797;28;20057;-89
2022/03/09 01:01:24;;;;;;;79.05;35.63;;;;;;;8.24;100.00;100297.22;5042014;28;20053;-89
2022/03/09 01:03:51;;;;;;;99.05;36.42;;;;;;;7.76;100.00;100285.81;5051897;28;20056;-90
2022/03/09 01:06:18;;;;;;;82.60;33.28;;;;;;;7.92;100.00;100283.53;5048425;28;20708;-89
2022/03/09 01:08:44;;;;;;;76.55;31.48;;;;;;;8.17;100.00;100305.25;5031237;28;20056;-89
2022/03/09 01:11:11;;;;;;;85.75;35.47;;;;;;;7.87;100.00;100286.28;5048818;28;20049;-88
2022/03/09 01:13:41;;;;;;;84.55;36.33;;;;;;;7.85;100.00;100292.47;5051314;28;20048;-89
2022/03/09 01:16:08;;;;;;;89.07;37.03;;;;;;;8.11;100.00;100309.81;5050318;28;20045;-89
2022/03/09 01:18:35;;;;;;;85.82;36.00;;;;;;;7.84;100.00;100289.00;5050846;28;20235;-90
2022/03/09 01:21:02;;;;;;;73.65;30.75;;;;;;;7.68;100.00;100285.19;5050178;28;20071;-88
2022/03/09 01:23:29;;;;;;;93.90;36.72;;;;;;;7.88;100.00;100279.31;5051139;28;20395;-90
2022/03/09 01:25:55;;;;;;;81.20;33.67;;;;;;;7.71;100.00;100253.81;5052294;28;20415;-89
2022/03/09 01:28:22;;;;;;;82.55;34.83;;;;;;;7.94;100.00;100237.41;5051554;28;20053;-90
2022/03/09 01:30:49;;;;;;;67.93;33.53;;;;;;;8.03;100.00;100281.41;5049746;28;20068;-89
2022/03/09 01:33:16;;;;;;;90.00;36.90;;;;;;;7.64;100.00;100249.72;5051334;28;20048;-90
2022/03/09 01:35:43;;;;;;;87.22;34.40;;;;;;;7.88;100.00;100240.22;5051139;28;20049;-89
2022/03/09 01:38:09;;;;;;;76.22;34.30;;;;;;;8.12;100.00;100283.69;5050714;28;20063;-89
2022/03/09 01:40:37;;;;;;;69.25;34.95;;;;;;;7.84;100.00;100246.44;5038823;28;20128;-90
2022/03/09 01:43:04;;;;;;;80.40;36.90;;;;;;;7.63;100.00;100232.38;5046789;28;20132;-89
2022/03/09 01:45:31;;;;;;;72.32;31.88;;;;;;;7.73;100.00;100252.88;5054277;28;20091;-89
2022/03/09 01:47:58;;;;;;;79.05;35.45;;;;;;;8.04;100.00;100295.28;5054414;28;20056;-89
2022/03/09 01:50:24;;;;;;;97.30;36.75;;;;;;;7.85;100.00;100274.22;5054292;28;20470;-89
2022/03/09 01:52:53;;;;;;;70.05;34.38;;;;;;;7.88;100.00;100248.91;5055020;28;20049;-90
2022/03/09 01:55:20;;;;;;;80.32;36.33;;;;;;;7.82;100.00;100274.31;5041690;28;20053;-90
2022/03/09 01:57:47;;;;;;;73.00;34.95;;;;;;;7.84;100.00;100275.94;5050802;28;20061;-90
2022/03/09 02:00:14;;;;;;;76.30;34.75;;;;;;;7.85;100.00;100300.28;5054299;28;20067;-89
2022/03/09 02:02:41;;;;;;;81.85;35.92;;;;;;;7.83;100.00;100287.31;5048984;28;20136;-89
2022/03/09 02:05:09;;;;;;;80.10;36.00;;;;;;;7.99;100.00;100288.47;5034291;28;20440;-90
2022/03/09 02:10:23;;;;;;;97.70;38.42;;;;;;;7.70;100.00;100284.25;5054431;28;20483;-89
2022/03/09 02:12:50;;;;;;;86.72;36.90;;;;;;;7.96;100.00;100319.00;5054162;28;20052;-90
2022/03/09 02:15:17;;;;;;;79.60;33.28;;;;;;;8.27;100.00;100297.97;5054057;28;20131;-88
2022/03/09 02:17:43;;;;;;;80.13;35.75;;;;;;;8.02;100.00;100313.63;5054384;28;20055;-89
2022/03/09 02:20:10;;;;;;;85.20;36.38;;;;;;;7.87;100.00;100291.50;5053151;28;20045;-89
2022/03/09 02:22:42;;;;;;;71.25;32.70;;;;;;;8.31;100.00;100304.78;5053958;28;20092;-90
2022/03/09 02:25:12;;;;;;;78.97;35.85;;;;;;;8.08;100.00;100308.19;5041388;28;20053;-89
2022/03/09 02:27:39;;;;;;;95.15;37.17;;;;;;;8.03;100.00;100291.00;5034662;28;20045;-90
2022/03/09 02:30:08;;;;;;;77.53;36.42;;;;;;;8.29;100.00;100295.31;5033608;28;20418;-90
2022/03/09 02:32:43;;;;;;;82.82;37.40;;;;;;;8.01;100.00;100324.09;5053536;28;20053;-89
2022/03/09 02:35:12;;;;;;;86.03;33.88;;;;;;;8.26;100.00;100308.44;5039954;28;20053;-91
2022/03/09 02:37:39;;;;;;;73.85;33.17;;;;;;;8.24;100.00;100329.38;5034358;28;20129;-90
2022/03/09 02:40:08;;;;;;;85.53;34.60;;;;;;;8.11;100.00;100297.66;5034289;28;20061;-91
2022/03/09 02:42:35;;;;;;;76.03;35.75;;;;;;;8.21;100.00;100308.59;5050418;28;20136;-90
2022/03/09 02:45:03;;;;;;;90.15;37.97;;;;;;;7.90;100.00;100304.44;5034520;28;20065;-90
2022/03/09 02:47:33;;;;;;;86.55;39.08;;;;;;;7.82;100.00;100284.75;5034866;28;20137;-90
2022/03/09 02:50:00;;;;;;;94.60;38.20;;;;;;;7.96;100.00;100303.38;5043418;28;20045;-90
2022/03/09 02:52:27;;;;;;;83.20;36.50;;;;;;;8.12;100.00;100288.91;5053253;28;20049;-91
2022/03/09 02:54:53;;;;;;;90.38;38.30;;;;;;;7.74;100.00;100298.03;5053545;28;20049;-89
2022/03/09 02:57:20;;;;;;;76.60;35.90;;;;;;;7.88;100.00;100279.31;5047113;28;20046;-91
2022/03/09 02:59:49;;;;;;;72.57;32.63;;;;;;;8.02;100.00;100274.50;5033974;28;20103;-89
2022/03/09 03:02:16;;;;;;;90.95;38.25;;;;;;;7.76;100.00;100293.63;5051819;28;20049;-91
2022/03/09 03:04:42;;;;;;;84.95;36.92;;;;;;;7.65;100.00;100262.72;5053508;28;20053;-91
2022/03/09 03:07:09;;;;;;;77.15;36.45;;;;;;;8.26;100.00;100271.94;5053196;28;20106;-89
2022/03/09 03:09:36;;;;;;;72.15;31.10;;;;;;;8.24;100.00;100276.38;5052730;28;20053;-88
2022/03/09 03:12:03;;;;;;;82.35;36.78;;;;;;;8.30;100.00;100294.38;5045581;28;20050;-91
2022/03/09 03:14:30;;;;;;;95.43;39.65;;;;;;;8.09;100.00;100298.59;5037945;28;20040;-91
2022/03/09 03:16:57;;;;;;;75.85;35.72;;;;;;;8.01;100.00;100272.78;5053132;28;20045;-90
2022/03/09 03:19:24;;;;;;;76.15;36.30;;;;;;;7.96;100.00;100280.75;5054872;28;20471;-91
2022/03/09 03:21:50;;;;;;;93.78;39.00;;;;;;;8.03;100.00;100272.75;5051277;28;20053;-89
2022/03/09 03:24:18;;;;;;;83.93;35.13;;;;;;;8.17;100.00;100276.56;5052425;28;20049;-89
2022/03/09 03:26:44;;;;;;;84.13;37.13;;;;;;;8.03;100.00;100298.81;5039584;28;20045;-90
2022/03/09 03:29:11;;;;;;;85.53;37.20;;;;;;;8.00;100.00;100310.19;5033428;28;20059;-89
2022/03/09 03:31:38;;;;;;;91.32;37.72;;;;;;;8.02;100.00;100292.75;5044465;28;20045;-90
2022/03/09 03:34:05;;;;;;;88.30;39.50;;;;;;;7.92;100.00;100300.03;5052980;28;20155;-89
2022/03/09 03:36:32;;;;;;;95.70;40.90;;;;;;;8.03;100.00;100307.47;5053005;28;20055;-89
2022/03/09 03:38:58;;;;;;;84.13;38.83;;;;;;;7.93;100.00;100286.09;5052662;28;20095;-89
2022/03/09 03:41:25;;;;;;;83.45;39.00;;;;;;;8.18;100.00;100303.50;5045042;28;20071;-89
2022/03/09 03:43:53;;;;;;;74.55;32.72;;;;;;;8.32;100.00;100295.19;5052839;28;20052;-89
2022/03/09 03:46:19;;;;;;;85.05;37.78;;;;;;;8.12;100.00;100301.94;5052458;28;20052;-90
2022/03/09 03:48:46;;;;;;;87.55;36.65;;;;;;;8.05;100.00;100279.59;5052860;28;20059;-90
2022/03/09 03:51:13;;;;;;;79.60;36.78;;;;;;;8.11;100.00;100300.25;5052875;28;20487;-90
2022/03/09 03:53:40;;;;;;;76.30;38.40;;;;;;;7.79;100.00;100281.34;5052637;28;20056;-89
2022/03/09 03:56:07;;;;;;;79.60;38.25;;;;;;;7.99;100.00;100270.22;5051692;28;20053;-89
2022/03/09 03:58:34;;;;;;;87.63;38.20;;;;;;;8.08;100.00;100276.88;5052376;28;20060;-88
2022/03/09 04:01:01;;;;;;;73.25;34.90;;;;;;;8.37;100.00;100277.63;5050486;28;20041;-89
2022/03/09 04:03:28;;;;;;;72.63;35.75;;;;;;;8.14;100.00;100276.69;5052668;28;20102;-90
2022/03/09 04:05:55;;;;;;;100.00;39.72;;;;;;;7.89;100.00;100265.38;5052002;28;20041;-89
2022/03/09 04:08:22;;;;;;;96.78;37.53;;;;;;;8.03;100.00;100267.53;5054164;28;20609;-90
2022/03/09 04:10:51;;;;;;;88.22;39.75;;;;;;;7.76;100.00;100283.19;5052465;28;20120;-88
2022/03/09 04:13:17;;;;;;;86.70;35.72;;;;;;;7.89;100.00;100257.56;5032588;28;20141;-90
2022/03/09 04:15:44;;;;;;;76.35;36.58;;;;;;;7.62;100.00;100221.13;5032577;28;20092;-90
2022/03/09 04:18:11;;;;;;;82.50;37.97;;;;;;;7.87;100.00;100202.88;5032101;28;20045;-90
2022/03/09 04:20:38;;;;;;;83.70;37.50;;;;;;;7.70;100.00;100193.06;5035287;28;20059;-89
2022/03/09 04:23:08;;;;;;;97.60;41.42;;;;;;;7.64;100.00;100210.66;5051268;28;20048;-89
2022/03/09 04:25:39;;;;;;;73.03;37.03;;;;;;;8.02;100.00;100222.34;5051619;28;20052;-90
2022/03/09 04:28:05;;;;;;;86.22;37.65;;;;;;;8.04;100.00;100210.13;5041498;28;20048;-89
2022/03/09 04:30:32;;;;;;;86.55;37.83;;;;;;;7.67;100.00;100210.53;5040645;28;20098;-90
2022/03/09 04:32:59;;;;;;;87.93;40.40;;;;;;;7.82;100.00;100217.81;5050922;28;20071;-90
2022/03/09 04:35:26;;;;;;;81.63;39.75;;;;;;;7.97;100.00;100216.44;5051028;28;20049;-89
2022/03/09 04:37:53;;;;;;;86.65;40.20;;;;;;;8.01;100.00;100246.72;5051450;28;20545;-90
2022/03/09 04:40:20;;;;;;;83.90;40.58;;;;;;;7.67;100.00;100229.63;5051440;28;20075;-89
2022/03/09 04:42:51;;;;;;;94.07;41.25;;;;;;;7.88;100.00;100235.88;5050508;28;20376;-90
2022/03/09 04:45:19;;;;;;;88.28;39.22;;;;;;;8.03;100.00;100246.66;5052161;28;20114;-89
2022/03/09 04:47:45;;;;;;;82.88;41.25;;;;;;;8.01;100.00;100241.50;5051070;28;20053;-90
2022/03/09 04:50:12;;;;;;;79.53;35.70;;;;;;;7.92;100.00;100236.63;5050948;28;20049;-88
2022/03/09 04:52:39;;;;;;;88.68;38.17;;;;;;;8.05;100.00;100242.25;5049933;28;20056;-90
2022/03/09 04:55:06;;;;;;;86.45;38.92;;;;;;;8.09;100.00;100238.63;5032532;28;20496;-89
2022/03/09 04:57:36;;;;;;;84.65;34.30;;;;;;;8.25;100.00;100252.84;5047287;28;20076;-89
2022/03/09 05:00:05;;;;;;;81.75;37.65;;;;;;;7.77;100.00;100230.16;5050587;28;21207;-89
2022/03/09 05:02:31;;;;;;;113.38;43.70;;;;;;;7.81;100.00;100257.84;5050409;28;20053;-89
2022/03/09 05:04:58;;;;;;;92.90;42.83;;;;;;;7.73;100.00;100257.22;5050662;28;20052;-89
2022/03/09 05:07:25;;;;;;;99.35;40.05;;;;;;;7.64;100.00;100260.16;5050256;28;20056;-89
2022/03/09 05:09:52;;;;;;;94.53;41.78;;;;;;;7.84;100.00;100249.03;5051373;28;20053;-89
2022/03/09 05:12:19;;;;;;;84.13;39.75;;;;;;;8.14;100.00;100268.88;5049709;28;20053;-89
2022/03/09 05:14:45;;;;;;;91.90;40.75;;;;;;;7.75;100.00;100279.72;5050957;28;20053;-89
2022/03/09 05:17:12;;;;;;;103.32;42.78;;;;;;;8.04;100.00;100258.78;5051303;28;20390;-89
2022/03/09 05:19:39;;;;;;;92.45;41.83;;;;;;;7.84;100.00;100236.84;5052151;28;20057;-89
2022/03/09 05:22:06;;;;;;;101.35;44.45;;;;;;;7.79;100.00;100263.09;5050669;28;20048;-89
2022/03/09 05:24:39;;;;;;;94.82;41.10;;;;;;;7.83;100.00;100263.00;5031159;28;20087;-89
2022/03/09 05:27:06;;;;;;;97.50;43.90;;;;;;;7.81;100.00;100257.84;5032206;28;20052;-88
2022/03/09 05:29:33;;;;;;;96.13;41.63;;;;;;;7.96;100.00;100246.88;5048621;28;20050;-88
2022/03/09 05:31:59;;;;;;;94.20;42.75;;;;;;;7.94;100.00;100240.00;5050135;28;20055;-89
2022/03/09 05:34:26;;;;;;;97.80;42.33;;;;;;;8.07;100.00;100246.50;5051235;28;20041;-88
2022/03/09 05:36:53;;;;;;;106.55;43.97;;;;;;;7.83;100.00;100226.50;5050822;28;20068;-89
2022/03/09 05:39:20;;;;;;;90.50;42.60;;;;;;;7.85;100.00;100248.16;5051709;28;20072;-88
2022/03/09 05:41:49;;;;;;;98.63;44.88;;;;;;;7.68;100.00;100246.09;5043049;28;20138;-90
2022/03/09 05:44:16;;;;;;;91.28;41.83;;;;;;;7.92;100.00;100237.47;5051761;28;20057;-89
2022/03/09 05:46:43;;;;;;;97.13;44.42;;;;;;;7.59;100.00;100223.81;5046538;28;20052;-90
2022/03/09 05:49:10;;;;;;;93.22;45.95;;;;;;;7.77;100.00;100230.16;5053022;28;20045;-90
2022/03/09 05:51:37;;;;;;;106.78;42.80;;;;;;;7.78;100.00;100218.84;5046527;28;20044;-89
2022/03/09 05:54:04;;;;;;;106.80;46.88;;;;;;;7.62;100.00;100215.91;5049082;28;20057;-90
2022/03/09 05:56:31;;;;;;;105.97;48.08;;;;;;;7.76;100.00;100198.03;5050970;28;20120;-89
2022/03/09 05:58:58;;;;;;;97.53;41.67;;;;;;;7.64;100.00;100201.06;5046691;28;20049;-89
2022/03/09 06:01:25;;;;;;;100.88;43.95;;;;;;;7.72;100.00;100219.91;5047296;28;20049;-89
2022/03/09 06:03:52;;;;;;;104.32;45.05;;;;;;;7.85;100.00;100212.50;5043783;28;20049;-87
2022/03/09 06:06:18;;;;;;;97.30;44.55;;;;;;;7.65;100.00;100178.47;5049716;28;20045;-89
2022/03/09 06:08:47;;;;;;;93.28;46.60;;;;;;;7.98;100.00;100231.16;5048593;28;20045;-88
2022/03/09 06:11:14;;;;;;;103.75;45.35;;;;;;;7.78;100.00;100234.47;5043592;28;20046;-89
2022/03/09 06:13:41;;;;;;;91.70;43.58;;;;;;;7.96;100.00;100233.81;5047348;28;20131;-89
2022/03/09 06:16:07;;;;;;;95.35;45.47;;;;;;;7.50;100.00;100235.38;5050236;28;20053;-88
2022/03/09 06:18:38;;;;;;;90.43;41.58;;;;;;;7.44;100.00;100193.94;5049699;28;20052;-88
2022/03/09 06:21:04;;;;;;;101.32;46.53;;;;;;;7.52;100.00;100210.13;5046517;28;20045;-88
2022/03/09 06:23:32;;;;;;;106.40;43.92;;;;;;;7.73;100.00;100220.75;5043039;28;20435;-88
2022/03/09 06:25:59;;;;;;;94.35;43.55;;;;;;;7.79;100.00;100228.34;5047979;28;20605;-88
2022/03/09 06:28:27;;;;;;;87.78;42.25;;;;;;;7.76;100.00;100236.28;5045330;28;20049;-88
2022/03/09 06:30:54;;;;;;;94.93;42.10;;;;;;;7.71;100.00;100218.19;5046463;28;20160;-88
2022/03/09 06:33:21;;;;;;;96.38;45.20;;;;;;;7.67;100.00;100214.00;5048995;28;20045;-88
2022/03/09 06:35:48;;;;;;;90.80;43.08;;;;;;;7.49;100.00;100198.97;5046125;28;20116;-87
2022/03/09 06:38:15;;;;;;;107.35;45.30;;;;;;;7.75;100.00;100219.78;5051684;28;20041;-88
2022/03/09 06:40:42;;;;;;;85.32;40.72;;;;;;;7.82;100.00;100217.81;5042714;28;20044;-87
2022/03/09 06:43:09;;;;;;;87.57;43.85;;;;;;;7.69;100.00;100198.31;5051851;28;20164;-88
2022/03/09 06:45:37;;;;;;;95.18;42.00;;;;;;;7.63;100.00;100201.94;5050183;28;20060;-90
2022/03/09 06:48:04;;;;;;;89.93;40.85;;;;;;;7.82;100.00;100198.72;5048566;28;20415;-88
2022/03/09 06:50:32;;;;;;;106.55;46.03;;;;;;;7.71;100.00;100184.31;5048683;28;20047;-90
2022/03/09 06:52:58;;;;;;;112.05;47.33;;;;;;;7.26;100.00;100178.88;5040942;28;20145;-90
2022/03/09 06:55:25;;;;;;;89.82;42.28;;;;;;;7.40;100.00;100163.66;5050416;28;20052;-90
2022/03/09 06:57:52;;;;;;;83.10;39.95;;;;;;;7.83;100.00;100188.25;5047814;28;20041;-90
2022/03/09 07:00:19;;;;;;;87.88;37.92;;;;;;;7.89;100.00;100198.44;5053740;28;20132;-90
2022/03/09 07:02:46;;;;;;;91.40;42.83;;;;;;;7.84;100.00;100207.34;5050979;28;20049;-91
2022/03/09 07:05:14;;;;;;;86.95;39.28;;;;;;;7.96;100.00;100220.78;5053252;28;20053;-89
2022/03/09 07:07:41;;;;;;;94.25;42.80;;;;;;;7.93;100.00;100239.16;5053896;28;20376;-90
2022/03/09 07:10:12;;;;;;;81.68;38.00;;;;;;;7.82;100.00;100228.25;5048332;28;20406;-87
2022/03/09 07:12:44;;;;;;;75.30;35.63;;;;;;;7.97;100.00;100219.91;5050556;28;20483;-87
2022/03/09 07:15:13;;;;;;;84.13;38.22;;;;;;;7.91;100.00;100222.72;5051252;28;20103;-87
2022/03/09 07:17:40;;;;;;;78.30;39.50;;;;;;;7.84;100.00;100217.78;5050931;28;20056;-86
2022/03/09 07:20:08;;;;;;;80.03;38.00;;;;;;;8.13;100.00;100186.31;5048636;28;20045;-86
2022/03/09 07:22:37;;;;;;;82.93;36.88;;;;;;;8.17;100.00;100208.75;5051551;28;20083;-87
2022/03/09 07:25:05;;;;;;;77.95;39.63;;;;;;;7.94;100.00;100190.47;5051526;28;20056;-86
2022/03/09 07:27:32;;;;;;;86.07;40.22;;;;;;;7.89;100.00;100213.25;5051541;28;20049;-86
2022/03/09 07:29:59;;;;;;;85.05;39.42;;;;;;;8.14;100.00;100202.78;5052091;28;20548;-86
2022/03/09 07:32:25;;;;;;;81.10;38.40;;;;;;;7.85;100.00;100181.22;5051375;28;20055;-86
2022/03/09 07:35:12;;;;;;;87.47;39.08;;;;;;;8.02;100.00;100191.06;5048487;28;20406;-87
2022/03/09 07:37:39;;;;;;;90.80;40.92;;;;;;;8.04;100.00;100193.59;5051906;28;20049;-87
2022/03/09 07:40:07;;;;;;;84.13;42.42;;;;;;;7.90;100.00;100213.19;5051946;28;20051;-87
2022/03/09 07:42:34;;;;;;;86.68;41.08;;;;;;;8.25;100.00;100195.47;5047990;28;20048;-86
2022/03/09 07:45:06;;;;;;;90.30;41.63;;;;;;;8.33;100.00;100192.56;5050357;28;20678;-87
2022/03/09 07:47:35;;;;;;;77.53;38.75;;;;;;;8.58;100.00;100208.16;5048139;28;20752;-86
2022/03/09 07:50:04;;;;;;;83.13;38.83;;;;;;;8.15;100.00;100202.75;5066314;28;20052;-85
2022/03/09 07:52:31;;;;;;;93.85;41.20;;;;;;;8.28;100.00;100194.47;5051824;28;20127;-85
2022/03/09 07:54:58;;;;;;;85.65;38.97;;;;;;;8.53;100.00;100191.84;5053421;28;20057;-87
2022/03/09 07:57:25;;;;;;;79.82;37.88;;;;;;;8.87;100.00;100188.78;5053047;28;20097;-85
2022/03/09 07:59:52;;;;;;;83.28;38.55;;;;;;;8.66;100.00;100134.81;5052322;28;20506;-87
2022/03/09 08:02:19;;;;;;;74.90;39.60;;;;;;;9.10;100.00;100174.81;5053953;28;20293;-85
2022/03/09 08:04:46;;;;;;;83.65;35.03;;;;;;;8.87;100.00;100144.41;5052739;28;20052;-86
2022/03/09 08:07:12;;;;;;;70.25;35.58;;;;;;;8.72;100.00;100179.78;5051549;28;20057;-85
2022/03/09 08:09:39;;;;;;;79.60;37.78;;;;;;;8.51;100.00;100172.78;5050970;28;20053;-85
2022/03/09 08:12:11;;;;;;;80.85;37.13;;;;;;;8.79;100.00;100167.34;5036771;28;20057;-86
2022/03/09 08:14:38;;;;;;;66.38;32.92;;;;;;;9.06;100.00;100173.22;5032341;28;20060;-85
2022/03/09 08:17:05;;;;;;;65.60;31.17;;;;;;;9.40;100.00;100145.75;5031749;28;20053;-85
2022/03/09 08:19:32;;;;;;;69.13;32.45;;;;;;;9.32;100.00;100113.84;5031786;28;20496;-85
2022/03/09 08:21:59;;;;;;;82.85;31.73;;;;;;;9.36;100.00;100167.66;5046192;28;20067;-85
2022/03/09 08:24:27;;;;;;;75.80;34.25;;;;;;;8.81;100.00;100168.13;5051894;28;20055;-86
2022/03/09 08:26:57;;;;;;;77.70;34.35;;;;;;;9.07;100.00;100176.72;5050730;28;20052;-86
2022/03/09 08:29:24;;;;;;;67.60;29.27;;;;;;;9.03;100.00;100115.03;5037139;28;20782;-86
2022/03/09 08:31:51;;;;;;;63.78;28.88;;;;;;;9.96;100.00;100148.56;5046779;28;20065;-86
2022/03/09 08:34:18;;;;;;;64.13;28.38;;;;;;;9.98;100.00;100163.25;5052789;28;20405;-85
2022/03/09 08:36:45;;;;;;;60.63;27.83;;;;;;;9.86;100.00;100156.81;5049724;28;20055;-91
2022/03/09 08:39:11;;;;;;;64.75;27.58;;;;;;;9.17;100.00;100156.28;5050073;28;20056;-91
2022/03/09 08:41:38;;;;;;;60.22;27.20;;;;;;;9.61;100.00;100133.50;5044982;28;20059;-89
2022/03/09 08:44:20;;;;;;;59.22;26.27;;;;;;;9.45;100.00;100132.47;5049326;28;20055;-90
2022/03/09 08:46:47;;;;;;;55.97;25.20;;;;;;;9.69;100.00;100151.47;5040808;28;20053;-90
2022/03/09 08:49:14;;;;;;;53.75;24.38;;;;;;;9.69;100.00;100125.34;5051811;28;20049;-91
2022/03/09 08:51:41;;;;;;;57.20;27.02;;;;;;;9.73;100.00;100186.19;5051438;28;20051;-91
2022/03/09 08:54:08;;;;;;;59.40;24.58;;;;;;;9.85;100.00;100152.50;5052158;28;20131;-91
2022/03/09 08:56:34;;;;;;;61.33;24.65;;;;;;;9.46;100.00;100102.81;5048167;28;20051;-91
2022/03/09 08:59:02;;;;;;;55.05;24.77;;;;;;;10.19;100.00;100134.47;5034067;28;20120;-91
2022/03/09 09:01:29;;;;;;;58.30;28.25;;;;;;;9.67;100.00;100135.00;5043471;28;20076;-91
2022/03/09 09:04:11;;;;;;;50.20;24.63;;;;;;;9.89;100.00;100130.53;5036019;28;20053;-91
2022/03/09 09:06:38;;;;;;;63.65;24.80;;;;;;;10.04;100.00;100146.47;5052758;28;20048;-91
2022/03/09 09:09:05;;;;;;;53.47;25.83;;;;;;;9.91;100.00;100143.53;5053363;28;20045;-91
2022/03/09 09:11:32;;;;;;;76.82;28.30;;;;;;;9.56;100.00;100147.69;5052493;28;20048;-91
2022/03/09 09:13:59;;;;;;;65.05;26.55;;;;;;;9.62;100.00;100121.28;5051539;28;20425;-90
2022/03/09 09:16:25;;;;;;;71.03;26.05;;;;;;;9.59;100.00;100161.47;5052589;28;20461;-91
2022/03/09 09:18:52;;;;;;;59.47;26.00;;;;;;;9.49;100.00;100140.13;5052036;28;20080;-91
2022/03/09 09:21:19;;;;;;;59.40;25.90;;;;;;;9.62;100.00;100150.88;5049415;28;20184;-90
2022/03/09 09:23:46;;;;;;;56.85;24.83;;;;;;;9.96;100.00;100149.41;5039319;28;20053;-91
2022/03/09 09:26:15;;;;;;;55.10;25.23;;;;;;;10.11;100.00;100158.34;5032779;28;20398;-90
2022/03/09 09:29:02;;;;;;;52.72;26.33;;;;;;;9.86;100.00;100143.75;5039626;28;20487;-91
2022/03/09 09:31:29;;;;;;;64.82;26.48;;;;;;;9.74;100.00;100170.44;5042842;28;20080;-92
2022/03/09 09:33:56;;;;;;;50.35;24.60;;;;;;;10.15;100.00;100165.13;5052144;28;20075;-90
2022/03/09 09:36:23;;;;;;;53.85;25.35;;;;;;;9.87;100.00;100132.34;5053011;28;20623;-91
2022/03/09 09:38:50;;;;;;;49.13;24.35;;;;;;;9.77;100.00;100144.13;5051820;28;20049;-94
2022/03/09 09:41:18;;;;;;;61.45;26.25;;;;;;;9.89;100.00;100138.38;5052581;28;20053;-93
2022/03/09 09:43:47;;;;;;;65.38;27.67;;;;;;;9.60;100.00;100128.34;5052938;28;20068;-89
2022/03/09 09:46:15;;;;;;;55.65;25.67;;;;;;;9.65;100.00;100144.66;5052133;28;20708;-90
2022/03/09 09:48:45;;;;;;;72.57;26.75;;;;;;;9.74;100.00;100138.19;5050277;28;20048;-90
2022/03/09 09:51:13;;;;;;;66.75;27.60;;;;;;;9.92;100.00;100136.56;5045829;28;20493;-88
2022/03/09 09:53:44;;;;;;;67.43;28.00;;;;;;;9.55;100.00;100107.63;5051915;28;20049;-89
2022/03/09 09:56:15;;;;;;;67.70;28.60;;;;;;;9.30;100.00;100115.69;5051770;28;20053;-89
2022/03/09 09:58:44;;;;;;;64.10;27.45;;;;;;;9.54;100.00;100118.16;5051453;28;20056;-90
2022/03/09 10:01:11;;;;;;;68.93;26.67;;;;;;;9.89;100.00;100127.06;5050063;28;20045;-90
2022/03/09 10:03:38;;;;;;;60.20;25.45;;;;;;;10.07;100.00;100128.88;5047137;28;20525;-91
2022/03/09 10:06:06;;;;;;;55.33;22.13;;;;;;;9.56;100.00;100103.25;5039798;28;20091;-90
2022/03/09 10:08:35;;;;;;;53.58;23.55;;;;;;;9.89;100.00;100146.22;5055742;28;20045;-92
2022/03/09 10:11:04;;;;;;;48.42;20.38;;;;;;;10.18;100.00;100157.16;5054492;28;20051;-92
2022/03/09 10:13:35;;;;;;;55.17;21.95;;;;;;;9.74;100.00;100125.13;5054873;28;20049;-92
2022/03/09 10:16:15;;;;;;;51.70;21.05;;;;;;;10.01;100.00;100123.06;5057230;28;20076;-91
2022/03/09 10:18:49;;;;;;;45.35;18.50;;;;;;;10.35;100.00;100147.72;5055616;28;20040;-91
2022/03/09 10:21:20;;;;;;;45.92;19.38;;;;;;;10.00;100.00;100158.81;5055750;28;20086;-90
2022/03/09 10:24:32;;;;;;;57.28;20.63;;;;;;;10.23;100.00;100149.09;5051010;28;20578;-85
2022/03/09 10:27:01;;;;;;;42.03;19.35;;;;;;;10.22;100.00;100161.31;5023128;28;20080;-90
2022/03/09 10:29:28;;;;;;;50.13;20.40;;;;;;;9.92;100.00;100157.47;5053679;28;20075;-90
2022/03/09 10:32:01;;;;;;;51.42;19.80;;;;;;;9.80;100.00;100156.25;5052290;28;20103;-90
2022/03/09 10:34:29;;;;;;;51.13;20.80;;;;;;;10.16;100.00;100155.50;5055340;28;20403;-89
2022/03/09 10:37:05;;;;;;;46.08;20.77;;;;;;;10.11;100.00;100153.13;5053940;28;20070;-90
2022/03/09 10:39:34;;;;;;;49.33;21.30;;;;;;;9.77;100.00;100157.19;5035564;28;20045;-90
2022/03/09 10:42:24;;;;;;;57.15;21.50;;;;;;;9.93;100.00;100140.84;5053029;28;20044;-90
2022/03/09 10:44:52;;;;;;;45.10;19.83;;;;;;;9.71;100.00;100161.88;5053665;28;20132;-90
2022/03/09 10:47:31;;;;;;;56.80;20.88;;;;;;;9.21;100.00;100161.31;5053630;28;20084;-90
2022/03/09 10:50:15;;;;;;;46.78;19.58;;;;;;;9.51;100.00;100155.72;5054025;28;20051;-89
2022/03/09 10:52:49;;;;;;;47.47;18.88;;;;;;;9.52;100.00;100160.03;5053526;28;20060;-90
2022/03/09 10:55:42;;;;;;;50.70;19.75;;;;;;;9.66;100.00;100155.06;5053261;28;20410;-90
2022/03/09 10:58:22;;;;;;;48.50;19.45;;;;;;;9.82;100.00;100128.25;5052787;28;20049;-90
2022/03/09 11:00:51;;;;;;;45.60;18.98;;;;;;;10.32;100.00;100146.06;5051688;28;20045;-90
2022/03/09 11:03:21;;;;;;;48.85;17.70;;;;;;;9.79;100.00;100155.41;5053695;28;20095;-90
2022/03/09 11:05:52;;;;;;;59.00;19.23;;;;;;;10.26;100.00;100154.19;5053203;28;20103;-90
2022/03/09 11:08:22;;;;;;;40.55;16.65;;;;;;;9.89;100.00;100143.59;5053490;28;20099;-90
2022/03/09 11:10:50;;;;;;;59.80;19.40;;;;;;;10.06;100.00;100152.47;5052221;28;20055;-90
2022/03/09 11:13:17;;;;;;;41.80;17.63;;;;;;;10.12;100.00;100167.03;5052773;28;20091;-90
2022/03/09 11:15:47;;;;;;;47.58;17.45;;;;;;;10.02;100.00;100157.00;5053287;28;20102;-90